Terminal Aerodrome Forecast
Issued by NWS

Home | Current Version | Previous Version | Text Only | Print | Product List | Glossary On
Versions: 1 2 3 4 5 6 7 8 9 10 11 12 13 14 15 16 17
000
FTUS45 KTFX 282333
TAFHLN
TAF
KHLN 282333Z 2900/2924 35010KT P6SM VCSH SCT030 BKN060 OVC080
     FM290600 VRB04KT P6SM VCFG SCT010 BKN030
     FM291600 02006KT P6SM SCT040 BKN090=

USA.gov is the U.S. government's official web portal to all federal, state and local government web resources and services.